• Join FlightAware (Why Join?)
  • Login
  • US Flag 
07:18AM EDT


 

Airport Tracker/Info


-or-


 

Live Flight TrackerFlight Track Log ✈ ASQ5941 ✈ 11-Sep-2013 ✈ KAVP - KORD

Flight Track Log - Related Links

Times and Time Zones

All times are in EDT time to prevent confusion due to time zone crossing. See the ASQ5941 flight status page for this flight to view local times or setup timezone preferences in your user account.

Time Position Orientation Groundspeed Altitude Reporting Facility
EDT Latitude Longitude Course Direction KTS MPH feet Rate Location/Type
07:10PM 41.4397 -75.6581 278° West 208 239 5,000  Level New York Center
07:11PM 41.4403 -75.7439 271° West 120 138 6,600 1,800 Climbing New York Center
07:12PM 41.4239 -75.8367 257° West 184 212 8,700 1,680 Climbing New York Center
07:13PM 41.3747 -75.9133 229° Southwest 224 258 10,000 1,440 Climbing New York Center
07:14PM 41.4182 -76.4956 278° West  Level Estimated
07:14PM 41.3139 -76.0164 232° Southwest 298 343 11,600  Level New York Center
07:15PM 41.2719 -76.1153 241° Southwest 321 369 13,600 1,920 Climbing New York Center
07:16PM 41.2731 -76.2286 271° West 316 364 15,500 1,860 Climbing New York Center
07:17PM 41.2786 -76.3339 274° West 311 358 17,400 1,860 Climbing New York Center
07:18PM 41.2811 -76.4583 272° West 306 352 19,300 1,440 Climbing New York Center
07:19PM 41.2858 -76.5719 273° West 311 358 20,400 1,080 Climbing New York Center
07:20PM 41.2903 -76.6967 273° West 323 372 21,500 1,020 Climbing New York Center
07:21PM 41.2942 -76.8239 272° West 335 386 22,500 960 Climbing New York Center
07:22PM 41.2997 -76.9572 273° West 355 409 23,500 960 Climbing New York Center
07:23PM 41.3033 -77.0900 272° West 360 414 24,500 960 Climbing New York Center
07:24PM 41.3083 -77.2286 273° West 367 422 25,500 960 Climbing New York Center
07:25PM 41.3156 -77.4839 272° West 385 443 27,400 960 Climbing Cleveland Center
07:26PM 41.3214 -77.6247 273° West 385 443 28,400 1,080 Climbing Cleveland Center
07:27PM 41.3253 -77.7792 272° West 385 443 29,600 1,080 Climbing Cleveland Center
07:28PM 41.3286 -77.9203 272° West 385 443 30,600 960 Climbing Cleveland Center
07:29PM 41.3339 -78.0611 273° West 385 443 31,600 960 Climbing Cleveland Center
07:30PM 41.3369 -78.2047 272° West 385 443 32,600 900 Climbing Cleveland Center
07:31PM 41.3397 -78.3347 272° West 385 443 33,500 900 Climbing Cleveland Center
07:32PM 41.3447 -78.4839 273° West 390 449 34,500 960 Climbing Cleveland Center
07:33PM 41.3472 -78.6303 271° West 390 449 35,500 720 Climbing Cleveland Center
07:34PM 41.3517 -78.7742 272° West 390 449 36,000 240 Climbing Cleveland Center
07:35PM 41.3539 -78.9289 271° West 406 467 36,000  Level Cleveland Center
07:36PM 41.3542 -79.0922 270° West 425 489 36,000  Level Cleveland Center
07:37PM 41.3561 -79.2469 271° West 431 496 36,000  Level Cleveland Center
07:38PM 41.3578 -79.3992 271° West 426 490 36,000  Level Cleveland Center
07:39PM 41.3592 -79.5514 271° West 420 483 36,000  Level Cleveland Center
07:40PM 41.3606 -79.7061 271° West 420 483 36,000  Level Cleveland Center
07:41PM 41.3614 -79.8528 270° West 420 483 36,000  Level Cleveland Center
07:42PM 41.3644 -79.9967 272° West 413 475 36,000  Level Cleveland Center
07:43PM 41.3650 -80.1461 270° West 408 470 36,000  Level Cleveland Center
07:44PM 41.3656 -80.2928 270° West 403 464 36,000  Level Cleveland Center
07:45PM 41.3636 -80.4419 269° West 408 470 36,000  Level Cleveland Center
07:46PM 41.3639 -80.5886 270° West 403 464 36,000  Level Cleveland Center
07:47PM 41.3658 -80.7325 271° West 398 458 36,000  Level Cleveland Center
07:48PM 41.3656 -80.8819 270° West 403 464 36,000  Level Cleveland Center
07:49PM 41.3650 -81.0314 270° West 397 457 36,000  Level Cleveland Center
07:50PM 41.3644 -81.1781 270° West 403 464 36,000  Level Cleveland Center
07:51PM 41.3633 -81.3356 270° West 398 458 36,000  Level Cleveland Center
07:52PM 41.3667 -81.4686 272° West 398 458 36,000  Level Cleveland Center
07:53PM 41.3653 -81.6122 269° West 403 464 36,000  Level Cleveland Center
07:54PM 41.3639 -81.7589 269° West 403 464 36,000  Level Cleveland Center
07:55PM 41.3644 -81.9056 270° West 403 464 36,000  Level Cleveland Center
07:56PM 41.3606 -82.0550 268° West 403 464 36,000  Level Cleveland Center
07:57PM 41.3544 -82.2069 267° West 409 471 36,000  Level Cleveland Center
07:58PM 41.3436 -82.3642 265° West 404 465 36,000  Level Cleveland Center
07:59PM 41.3308 -82.5106 263° West 404 465 36,000  Level Cleveland Center
08:00PM 41.3200 -82.6594 265° West 404 465 36,000  Level Cleveland Center
08:01PM 41.3089 -82.8083 264° West 404 465 36,000  Level Cleveland Center
08:02PM 41.2975 -82.9572 264° West 404 465 36,000  Level Cleveland Center
08:03PM 41.2858 -83.1089 264° West 404 465 36,000  Level Cleveland Center
08:04PM 41.2719 -83.2547 263° West 404 465 36,000 -360 Level Cleveland Center
08:05PM 41.2581 -83.4089 263° West 404 465 35,300 -900 Descending Cleveland Center
08:07PM 41.2436 -83.6381 265° West 413 475 33,800 -1,200 Descending Chicago Center
08:08PM 41.2308 -83.7875 264° West 409 471 32,300 -1,500 Descending Chicago Center
08:09PM 41.2178 -83.9372 263° West 410 472 30,700 -1,620 Descending Chicago Center
08:10PM 41.2044 -84.0875 263° West 410 472 29,000 -1,620 Descending Chicago Center
08:11PM 41.1914 -84.2383 263° West 411 473 27,400 -1,320 Descending Chicago Center
08:12PM 41.1764 -84.3933 263° West 421 484 26,300 -720 Descending Chicago Center
08:13PM 41.1792 -84.5908 271° West 446 513 26,000 -180 Descending Chicago Center
08:14PM 41.1925 -84.7539 276° West 443 510 26,000  Level Chicago Center
08:15PM 41.2042 -84.9147 276° West 440 506 26,000  Level Chicago Center
08:16PM 41.2167 -85.0758 276° West 439 505 26,000  Level Chicago Center
08:17PM 41.2286 -85.2386 276° West 440 506 26,000 -300 Level Chicago Center
08:18PM 41.2397 -85.4014 275° West 440 506 25,500 -540 Descending Chicago Center
08:19PM 41.2519 -85.5647 276° West 440 506 25,000 -300 Descending Chicago Center
08:20PM 41.2625 -85.7256 275° West 435 501 25,000  Level Chicago Center
08:22PM 41.2753 -85.9181 275° West 434 499 25,000 -300 Level Chicago Center
08:23PM 41.2947 -86.0758 279° West 431 496 24,500 -1,200 Descending Chicago Center
08:24PM 41.3586 -86.2097 302° West 426 490 22,600 -1,860 Descending Chicago Center
08:25PM 41.4244 -86.3367 305° West 419 482 20,700 -1,920 Descending Chicago Center
08:26PM 41.4861 -86.4578 304° West 399 459 18,700 -2,280 Descending Chicago Center
08:27PM 41.5436 -86.5722 304° West 376 433 16,100 -3,000 Descending Chicago Center
08:28PM 41.6000 -86.6814 305° West 359 413 12,600 -2,040 Descending Chicago Center
08:29PM 41.6625 -86.7817 310° West 331 381 12,000 -660 Descending Chicago Center
08:30PM 41.7700 -86.8089 349° North 336 387 11,300 -540 Descending Chicago Center
08:31PM 41.8619 -86.8314 350° North 337 388 11,000 -540 Descending Chicago Center
08:32PM 41.8986 -86.9336 296° West 310 357 10,200 -540 Descending Chicago Center
08:33PM 41.9186 -87.0411 284° West 301 346 10,000 -120 Descending Chicago Center
08:34PM 41.9361 -87.1531 282° West 307 353 10,000 -780 Level Chicago Center
08:35PM 41.9544 -87.2647 282° West 260 299 8,500 -1,260 Descending Chicago Center
08:36PM 41.9694 -87.3467 284° West 236 272 7,500 -780 Descending Chicago Center
08:37PM 41.9814 -87.4142 283° West 205 236 7,000 -420 Descending Chicago Center
08:38PM 41.9847 -87.4728 274° West 175 201 6,700 -660 Descending Chicago Center
08:39PM 41.9822 -87.5344 267° West 168 193 5,700 -1,020 Descending Chicago Center
08:40PM 41.9836 -87.6092 271° West 168 193 4,700 -1,020 Descending Chicago Center
08:41PM 41.9833 -87.6333 269° West 172 198 4,200 -960 Descending Chicago TRACON
08:42PM 41.9833 -87.7000 270° West 170 196 3,300 -900 Descending Chicago TRACON
08:43PM 41.9833 -87.7667 270° West 173 199 2,400 -900 Descending Chicago TRACON
08:44PM 41.9833 -87.8167 270° West 145 167 1,600 -780 Descending Chicago TRACON
08:45PM 41.9833 -87.8667 270° West 130 150 900 -720 Descending Chicago TRACON